sensor_id;sensor_type;location;lat;lon;timestamp;P1;durP1;ratioP1;P2;durP2;ratioP2
39680;SDS011;26327;42.550;23.120;2024-02-14T00:00:28;10.73;;;6.38;;
39680;SDS011;26327;42.550;23.120;2024-02-14T00:02:53;11.48;;;5.22;;
39680;SDS011;26327;42.550;23.120;2024-02-14T00:05:19;12.82;;;5.93;;
39680;SDS011;26327;42.550;23.120;2024-02-14T00:07:44;12.48;;;6.22;;
39680;SDS011;26327;42.550;23.120;2024-02-14T00:10:10;17.77;;;7.40;;
39680;SDS011;26327;42.550;23.120;2024-02-14T00:12:36;15.57;;;7.13;;
39680;SDS011;26327;42.550;23.120;2024-02-14T00:15:04;18.90;;;8.75;;
39680;SDS011;26327;42.550;23.120;2024-02-14T00:17:33;18.45;;;8.43;;
39680;SDS011;26327;42.550;23.120;2024-02-14T00:20:00;12.90;;;7.05;;
39680;SDS011;26327;42.550;23.120;2024-02-14T00:22:26;14.27;;;7.03;;
39680;SDS011;26327;42.550;23.120;2024-02-14T00:24:51;14.77;;;6.70;;
39680;SDS011;26327;42.550;23.120;2024-02-14T00:27:17;14.25;;;6.85;;
39680;SDS011;26327;42.550;23.120;2024-02-14T00:29:42;13.40;;;6.70;;
39680;SDS011;26327;42.550;23.120;2024-02-14T00:32:10;17.77;;;6.25;;
39680;SDS011;26327;42.550;23.120;2024-02-14T00:34:36;12.07;;;6.18;;
39680;SDS011;26327;42.550;23.120;2024-02-14T00:37:02;11.23;;;7.10;;
39680;SDS011;26327;42.550;23.120;2024-02-14T00:39:27;10.68;;;6.03;;
39680;SDS011;26327;42.550;23.120;2024-02-14T00:41:52;16.00;;;7.75;;
39680;SDS011;26327;42.550;23.120;2024-02-14T00:44:19;12.60;;;7.43;;
39680;SDS011;26327;42.550;23.120;2024-02-14T00:46:45;12.43;;;7.22;;
39680;SDS011;26327;42.550;23.120;2024-02-14T00:49:11;11.40;;;6.97;;
39680;SDS011;26327;42.550;23.120;2024-02-14T00:51:36;10.65;;;6.07;;
39680;SDS011;26327;42.550;23.120;2024-02-14T00:54:05;11.85;;;7.20;;
39680;SDS011;26327;42.550;23.120;2024-02-14T00:56:31;12.38;;;5.78;;
39680;SDS011;26327;42.550;23.120;2024-02-14T00:58:56;11.68;;;6.45;;
39680;SDS011;26327;42.550;23.120;2024-02-14T01:01:22;13.00;;;6.82;;
39680;SDS011;26327;42.550;23.120;2024-02-14T01:03:48;13.10;;;6.97;;
39680;SDS011;26327;42.550;23.120;2024-02-14T01:06:14;14.98;;;7.85;;
39680;SDS011;26327;42.550;23.120;2024-02-14T01:08:40;16.05;;;7.97;;
39680;SDS011;26327;42.550;23.120;2024-02-14T01:11:06;16.05;;;9.57;;
39680;SDS011;26327;42.550;23.120;2024-02-14T01:13:32;15.10;;;9.05;;
39680;SDS011;26327;42.550;23.120;2024-02-14T01:15:58;13.40;;;9.07;;
39680;SDS011;26327;42.550;23.120;2024-02-14T01:18:23;13.13;;;8.25;;
39680;SDS011;26327;42.550;23.120;2024-02-14T01:20:49;11.65;;;7.18;;
39680;SDS011;26327;42.550;23.120;2024-02-14T01:23:14;11.38;;;7.88;;
39680;SDS011;26327;42.550;23.120;2024-02-14T01:25:40;11.23;;;6.63;;
39680;SDS011;26327;42.550;23.120;2024-02-14T01:28:07;11.35;;;7.10;;
39680;SDS011;26327;42.550;23.120;2024-02-14T01:30:33;10.45;;;7.13;;
39680;SDS011;26327;42.550;23.120;2024-02-14T01:33:01;10.23;;;7.10;;
39680;SDS011;26327;42.550;23.120;2024-02-14T01:35:29;10.48;;;6.85;;
39680;SDS011;26327;42.550;23.120;2024-02-14T01:37:55;10.70;;;7.05;;
39680;SDS011;26327;42.550;23.120;2024-02-14T01:40:20;11.98;;;7.72;;
39680;SDS011;26327;42.550;23.120;2024-02-14T01:42:46;10.60;;;6.40;;
39680;SDS011;26327;42.550;23.120;2024-02-14T01:45:11;9.35;;;6.70;;
39680;SDS011;26327;42.550;23.120;2024-02-14T01:47:37;10.20;;;6.78;;
39680;SDS011;26327;42.550;23.120;2024-02-14T01:50:05;11.02;;;7.05;;
39680;SDS011;26327;42.550;23.120;2024-02-14T01:52:33;10.20;;;6.68;;
39680;SDS011;26327;42.550;23.120;2024-02-14T01:55:00;9.60;;;6.35;;
39680;SDS011;26327;42.550;23.120;2024-02-14T01:57:27;14.48;;;8.00;;
39680;SDS011;26327;42.550;23.120;2024-02-14T01:59:53;13.90;;;8.68;;
39680;SDS011;26327;42.550;23.120;2024-02-14T02:02:21;11.63;;;6.93;;
39680;SDS011;26327;42.550;23.120;2024-02-14T02:04:47;11.65;;;7.30;;
39680;SDS011;26327;42.550;23.120;2024-02-14T02:07:12;11.13;;;7.00;;
39680;SDS011;26327;42.550;23.120;2024-02-14T02:09:38;11.02;;;7.25;;
39680;SDS011;26327;42.550;23.120;2024-02-14T02:12:04;8.82;;;6.20;;
39680;SDS011;26327;42.550;23.120;2024-02-14T02:14:32;10.80;;;7.55;;
39680;SDS011;26327;42.550;23.120;2024-02-14T02:16:58;11.10;;;7.65;;
39680;SDS011;26327;42.550;23.120;2024-02-14T02:19:24;13.80;;;8.77;;
39680;SDS011;26327;42.550;23.120;2024-02-14T02:21:49;16.75;;;8.57;;
39680;SDS011;26327;42.550;23.120;2024-02-14T02:24:15;19.90;;;9.45;;
39680;SDS011;26327;42.550;23.120;2024-02-14T02:26:40;20.27;;;10.05;;
39680;SDS011;26327;42.550;23.120;2024-02-14T02:29:05;15.93;;;8.23;;
39680;SDS011;26327;42.550;23.120;2024-02-14T02:31:31;15.43;;;8.02;;
39680;SDS011;26327;42.550;23.120;2024-02-14T02:33:57;12.57;;;7.53;;
39680;SDS011;26327;42.550;23.120;2024-02-14T02:36:22;13.38;;;7.03;;
39680;SDS011;26327;42.550;23.120;2024-02-14T02:38:49;12.27;;;7.18;;
39680;SDS011;26327;42.550;23.120;2024-02-14T02:41:15;10.57;;;6.78;;
39680;SDS011;26327;42.550;23.120;2024-02-14T02:43:40;11.25;;;6.72;;
39680;SDS011;26327;42.550;23.120;2024-02-14T02:46:08;14.38;;;7.43;;
39680;SDS011;26327;42.550;23.120;2024-02-14T02:48:34;14.40;;;8.05;;
39680;SDS011;26327;42.550;23.120;2024-02-14T02:50:59;13.90;;;7.93;;
39680;SDS011;26327;42.550;23.120;2024-02-14T02:53:25;14.90;;;7.15;;
39680;SDS011;26327;42.550;23.120;2024-02-14T02:55:50;14.15;;;8.20;;
39680;SDS011;26327;42.550;23.120;2024-02-14T02:58:16;13.23;;;8.45;;
39680;SDS011;26327;42.550;23.120;2024-02-14T03:00:42;17.90;;;8.70;;
39680;SDS011;26327;42.550;23.120;2024-02-14T03:03:07;16.40;;;7.65;;
39680;SDS011;26327;42.550;23.120;2024-02-14T03:05:33;15.82;;;8.60;;
39680;SDS011;26327;42.550;23.120;2024-02-14T03:07:59;11.35;;;7.25;;
39680;SDS011;26327;42.550;23.120;2024-02-14T03:10:25;11.73;;;7.18;;
39680;SDS011;26327;42.550;23.120;2024-02-14T03:12:51;11.63;;;7.32;;
39680;SDS011;26327;42.550;23.120;2024-02-14T03:15:17;12.65;;;7.90;;
39680;SDS011;26327;42.550;23.120;2024-02-14T03:17:43;14.52;;;9.02;;
39680;SDS011;26327;42.550;23.120;2024-02-14T03:20:12;12.98;;;8.00;;
39680;SDS011;26327;42.550;23.120;2024-02-14T03:22:39;11.68;;;7.80;;
39680;SDS011;26327;42.550;23.120;2024-02-14T03:25:20;11.65;;;7.63;;
39680;SDS011;26327;42.550;23.120;2024-02-14T03:27:46;12.10;;;7.25;;
39680;SDS011;26327;42.550;23.120;2024-02-14T03:30:14;10.45;;;6.55;;
39680;SDS011;26327;42.550;23.120;2024-02-14T03:32:42;11.35;;;7.50;;
39680;SDS011;26327;42.550;23.120;2024-02-14T03:35:08;10.40;;;6.40;;
39680;SDS011;26327;42.550;23.120;2024-02-14T03:37:35;10.48;;;6.28;;
39680;SDS011;26327;42.550;23.120;2024-02-14T03:40:02;9.45;;;6.82;;
39680;SDS011;26327;42.550;23.120;2024-02-14T03:42:29;10.48;;;7.30;;
39680;SDS011;26327;42.550;23.120;2024-02-14T03:44:54;10.40;;;7.22;;
39680;SDS011;26327;42.550;23.120;2024-02-14T03:47:27;13.13;;;7.97;;
39680;SDS011;26327;42.550;23.120;2024-02-14T03:49:53;18.35;;;8.25;;
39680;SDS011;26327;42.550;23.120;2024-02-14T03:52:18;12.85;;;8.63;;
39680;SDS011;26327;42.550;23.120;2024-02-14T03:54:44;16.45;;;8.45;;
39680;SDS011;26327;42.550;23.120;2024-02-14T03:57:09;12.65;;;7.90;;
39680;SDS011;26327;42.550;23.120;2024-02-14T03:59:37;12.98;;;7.80;;
39680;SDS011;26327;42.550;23.120;2024-02-14T04:02:06;16.42;;;8.73;;
39680;SDS011;26327;42.550;23.120;2024-02-14T04:04:37;15.07;;;8.50;;
39680;SDS011;26327;42.550;23.120;2024-02-14T04:07:04;14.02;;;7.68;;
39680;SDS011;26327;42.550;23.120;2024-02-14T04:09:30;11.40;;;7.20;;
39680;SDS011;26327;42.550;23.120;2024-02-14T04:11:57;9.75;;;6.97;;
39680;SDS011;26327;42.550;23.120;2024-02-14T04:14:22;12.88;;;7.72;;
39680;SDS011;26327;42.550;23.120;2024-02-14T04:16:48;12.85;;;7.93;;
39680;SDS011;26327;42.550;23.120;2024-02-14T04:19:13;13.65;;;7.80;;
39680;SDS011;26327;42.550;23.120;2024-02-14T04:21:42;11.52;;;8.13;;
39680;SDS011;26327;42.550;23.120;2024-02-14T04:24:08;11.43;;;8.18;;
39680;SDS011;26327;42.550;23.120;2024-02-14T04:26:33;11.52;;;8.07;;
39680;SDS011;26327;42.550;23.120;2024-02-14T04:28:59;10.25;;;7.20;;
39680;SDS011;26327;42.550;23.120;2024-02-14T04:31:25;12.20;;;7.95;;
39680;SDS011;26327;42.550;23.120;2024-02-14T04:33:51;10.50;;;7.07;;
39680;SDS011;26327;42.550;23.120;2024-02-14T04:36:18;13.07;;;7.43;;
39680;SDS011;26327;42.550;23.120;2024-02-14T04:38:46;15.48;;;8.73;;
39680;SDS011;26327;42.550;23.120;2024-02-14T04:41:12;15.38;;;8.30;;
39680;SDS011;26327;42.550;23.120;2024-02-14T04:43:37;17.08;;;8.82;;
39680;SDS011;26327;42.550;23.120;2024-02-14T04:46:03;16.85;;;9.23;;
39680;SDS011;26327;42.550;23.120;2024-02-14T04:48:32;18.75;;;10.63;;
39680;SDS011;26327;42.550;23.120;2024-02-14T04:50:58;17.90;;;9.63;;
39680;SDS011;26327;42.550;23.120;2024-02-14T04:53:23;20.52;;;10.27;;
39680;SDS011;26327;42.550;23.120;2024-02-14T04:55:49;25.52;;;11.25;;
39680;SDS011;26327;42.550;23.120;2024-02-14T04:58:14;28.02;;;11.73;;
39680;SDS011;26327;42.550;23.120;2024-02-14T05:00:40;71.93;;;34.78;;
39680;SDS011;26327;42.550;23.120;2024-02-14T05:03:05;22.90;;;10.68;;
39680;SDS011;26327;42.550;23.120;2024-02-14T05:05:31;16.05;;;8.82;;
39680;SDS011;26327;42.550;23.120;2024-02-14T05:07:58;18.30;;;9.85;;
39680;SDS011;26327;42.550;23.120;2024-02-14T05:10:24;25.42;;;13.05;;
39680;SDS011;26327;42.550;23.120;2024-02-14T05:12:49;19.55;;;9.30;;
39680;SDS011;26327;42.550;23.120;2024-02-14T05:15:15;21.27;;;11.95;;
39680;SDS011;26327;42.550;23.120;2024-02-14T05:17:44;23.92;;;13.13;;
39680;SDS011;26327;42.550;23.120;2024-02-14T05:20:09;17.20;;;9.02;;
39680;SDS011;26327;42.550;23.120;2024-02-14T05:22:36;25.65;;;11.63;;
39680;SDS011;26327;42.550;23.120;2024-02-14T05:25:03;15.63;;;8.32;;
39680;SDS011;26327;42.550;23.120;2024-02-14T05:27:29;13.43;;;8.60;;
39680;SDS011;26327;42.550;23.120;2024-02-14T05:29:55;18.65;;;9.98;;
39680;SDS011;26327;42.550;23.120;2024-02-14T05:32:20;22.27;;;12.05;;
39680;SDS011;26327;42.550;23.120;2024-02-14T05:34:46;23.77;;;11.75;;
39680;SDS011;26327;42.550;23.120;2024-02-14T05:37:11;26.15;;;12.40;;
39680;SDS011;26327;42.550;23.120;2024-02-14T05:39:36;21.40;;;11.98;;
39680;SDS011;26327;42.550;23.120;2024-02-14T05:42:02;30.05;;;14.40;;
39680;SDS011;26327;42.550;23.120;2024-02-14T05:44:29;29.55;;;12.82;;
39680;SDS011;26327;42.550;23.120;2024-02-14T05:46:55;24.52;;;10.88;;
39680;SDS011;26327;42.550;23.120;2024-02-14T05:49:21;15.85;;;10.00;;
39680;SDS011;26327;42.550;23.120;2024-02-14T05:51:47;22.88;;;11.18;;
39680;SDS011;26327;42.550;23.120;2024-02-14T05:54:12;22.52;;;11.88;;
39680;SDS011;26327;42.550;23.120;2024-02-14T05:56:37;19.55;;;10.70;;
39680;SDS011;26327;42.550;23.120;2024-02-14T05:59:03;30.30;;;14.43;;
39680;SDS011;26327;42.550;23.120;2024-02-14T06:01:28;19.75;;;11.05;;
39680;SDS011;26327;42.550;23.120;2024-02-14T06:03:53;19.95;;;10.50;;
39680;SDS011;26327;42.550;23.120;2024-02-14T06:06:19;14.55;;;8.90;;
39680;SDS011;26327;42.550;23.120;2024-02-14T06:08:44;16.20;;;9.30;;
39680;SDS011;26327;42.550;23.120;2024-02-14T06:11:10;17.52;;;9.27;;
39680;SDS011;26327;42.550;23.120;2024-02-14T06:13:37;15.77;;;8.98;;
39680;SDS011;26327;42.550;23.120;2024-02-14T06:16:03;23.70;;;11.15;;
39680;SDS011;26327;42.550;23.120;2024-02-14T06:18:28;20.08;;;10.93;;
39680;SDS011;26327;42.550;23.120;2024-02-14T06:20:54;17.30;;;10.30;;
39680;SDS011;26327;42.550;23.120;2024-02-14T06:23:19;16.83;;;9.13;;
39680;SDS011;26327;42.550;23.120;2024-02-14T06:25:44;16.90;;;9.55;;
39680;SDS011;26327;42.550;23.120;2024-02-14T06:28:10;17.60;;;9.10;;
39680;SDS011;26327;42.550;23.120;2024-02-14T06:30:35;17.17;;;8.95;;
39680;SDS011;26327;42.550;23.120;2024-02-14T06:33:00;19.70;;;9.60;;
39680;SDS011;26327;42.550;23.120;2024-02-14T06:35:27;17.98;;;9.25;;
39680;SDS011;26327;42.550;23.120;2024-02-14T06:37:53;12.32;;;7.93;;
39680;SDS011;26327;42.550;23.120;2024-02-14T06:40:19;12.10;;;7.15;;
39680;SDS011;26327;42.550;23.120;2024-02-14T06:42:45;12.75;;;7.88;;
39680;SDS011;26327;42.550;23.120;2024-02-14T06:45:10;12.73;;;7.63;;
39680;SDS011;26327;42.550;23.120;2024-02-14T06:47:36;12.93;;;7.93;;
39680;SDS011;26327;42.550;23.120;2024-02-14T06:50:01;35.35;;;18.50;;
39680;SDS011;26327;42.550;23.120;2024-02-14T06:52:26;22.67;;;12.23;;
39680;SDS011;26327;42.550;23.120;2024-02-14T06:54:52;26.55;;;11.98;;
39680;SDS011;26327;42.550;23.120;2024-02-14T06:57:17;22.20;;;12.73;;
39680;SDS011;26327;42.550;23.120;2024-02-14T06:59:43;16.02;;;9.50;;
39680;SDS011;26327;42.550;23.120;2024-02-14T07:02:08;17.65;;;8.88;;
39680;SDS011;26327;42.550;23.120;2024-02-14T07:04:34;15.90;;;8.23;;
39680;SDS011;26327;42.550;23.120;2024-02-14T07:06:59;15.07;;;8.75;;
39680;SDS011;26327;42.550;23.120;2024-02-14T07:09:25;17.15;;;8.93;;
39680;SDS011;26327;42.550;23.120;2024-02-14T07:11:51;11.40;;;7.35;;
39680;SDS011;26327;42.550;23.120;2024-02-14T07:14:18;17.15;;;8.35;;
39680;SDS011;26327;42.550;23.120;2024-02-14T07:16:44;20.17;;;11.82;;
39680;SDS011;26327;42.550;23.120;2024-02-14T07:19:10;16.67;;;9.32;;
39680;SDS011;26327;42.550;23.120;2024-02-14T07:21:35;19.65;;;9.30;;
39680;SDS011;26327;42.550;23.120;2024-02-14T07:24:02;14.25;;;8.07;;
39680;SDS011;26327;42.550;23.120;2024-02-14T07:26:29;15.68;;;8.15;;
39680;SDS011;26327;42.550;23.120;2024-02-14T07:28:54;16.80;;;9.52;;
39680;SDS011;26327;42.550;23.120;2024-02-14T07:31:20;20.05;;;11.07;;
39680;SDS011;26327;42.550;23.120;2024-02-14T07:33:45;22.55;;;11.70;;
39680;SDS011;26327;42.550;23.120;2024-02-14T07:36:12;18.95;;;10.25;;
39680;SDS011;26327;42.550;23.120;2024-02-14T07:38:38;18.83;;;8.85;;
39680;SDS011;26327;42.550;23.120;2024-02-14T07:41:03;10.18;;;7.10;;
39680;SDS011;26327;42.550;23.120;2024-02-14T07:43:28;25.85;;;13.13;;
39680;SDS011;26327;42.550;23.120;2024-02-14T07:45:54;11.68;;;7.50;;
39680;SDS011;26327;42.550;23.120;2024-02-14T07:48:19;15.95;;;9.23;;
39680;SDS011;26327;42.550;23.120;2024-02-14T07:50:45;19.60;;;9.57;;
39680;SDS011;26327;42.550;23.120;2024-02-14T07:53:10;22.63;;;11.63;;
39680;SDS011;26327;42.550;23.120;2024-02-14T07:55:36;31.67;;;17.23;;
39680;SDS011;26327;42.550;23.120;2024-02-14T07:58:01;16.27;;;10.68;;
39680;SDS011;26327;42.550;23.120;2024-02-14T08:00:26;14.23;;;9.82;;
39680;SDS011;26327;42.550;23.120;2024-02-14T08:02:52;15.82;;;8.98;;
39680;SDS011;26327;42.550;23.120;2024-02-14T08:05:17;17.55;;;8.85;;
39680;SDS011;26327;42.550;23.120;2024-02-14T08:07:44;27.38;;;13.30;;
39680;SDS011;26327;42.550;23.120;2024-02-14T08:10:11;19.00;;;12.55;;
39680;SDS011;26327;42.550;23.120;2024-02-14T08:12:36;16.55;;;8.50;;
39680;SDS011;26327;42.550;23.120;2024-02-14T08:15:02;21.77;;;12.30;;
39680;SDS011;26327;42.550;23.120;2024-02-14T08:17:31;20.80;;;11.18;;
39680;SDS011;26327;42.550;23.120;2024-02-14T08:19:56;23.58;;;13.75;;
39680;SDS011;26327;42.550;23.120;2024-02-14T08:22:22;19.45;;;11.15;;
39680;SDS011;26327;42.550;23.120;2024-02-14T08:24:47;24.20;;;11.90;;
39680;SDS011;26327;42.550;23.120;2024-02-14T08:27:13;30.77;;;15.85;;
39680;SDS011;26327;42.550;23.120;2024-02-14T08:29:38;27.83;;;14.68;;
39680;SDS011;26327;42.550;23.120;2024-02-14T08:32:03;25.23;;;13.68;;
39680;SDS011;26327;42.550;23.120;2024-02-14T08:34:30;30.70;;;14.20;;
39680;SDS011;26327;42.550;23.120;2024-02-14T08:36:55;17.42;;;9.85;;
39680;SDS011;26327;42.550;23.120;2024-02-14T08:39:20;29.15;;;13.90;;
39680;SDS011;26327;42.550;23.120;2024-02-14T08:41:46;31.75;;;15.63;;
39680;SDS011;26327;42.550;23.120;2024-02-14T08:44:12;36.42;;;17.95;;
39680;SDS011;26327;42.550;23.120;2024-02-14T08:46:38;22.00;;;11.80;;
39680;SDS011;26327;42.550;23.120;2024-02-14T08:49:04;29.05;;;14.85;;
39680;SDS011;26327;42.550;23.120;2024-02-14T08:51:37;32.85;;;17.02;;
39680;SDS011;26327;42.550;23.120;2024-02-14T08:54:06;13.45;;;8.60;;
39680;SDS011;26327;42.550;23.120;2024-02-14T08:56:32;16.75;;;8.88;;
39680;SDS011;26327;42.550;23.120;2024-02-14T08:59:01;15.57;;;8.20;;
39680;SDS011;26327;42.550;23.120;2024-02-14T09:01:28;25.42;;;14.45;;
39680;SDS011;26327;42.550;23.120;2024-02-14T09:03:55;18.83;;;10.13;;
39680;SDS011;26327;42.550;23.120;2024-02-14T09:06:21;31.15;;;15.05;;
39680;SDS011;26327;42.550;23.120;2024-02-14T09:08:47;22.02;;;12.02;;
39680;SDS011;26327;42.550;23.120;2024-02-14T09:11:15;24.92;;;12.07;;
39680;SDS011;26327;42.550;23.120;2024-02-14T09:13:42;14.55;;;8.60;;
39680;SDS011;26327;42.550;23.120;2024-02-14T09:16:08;13.82;;;8.15;;
39680;SDS011;26327;42.550;23.120;2024-02-14T09:18:34;24.70;;;13.00;;
39680;SDS011;26327;42.550;23.120;2024-02-14T09:21:00;25.20;;;12.15;;
39680;SDS011;26327;42.550;23.120;2024-02-14T09:23:26;39.70;;;18.80;;
39680;SDS011;26327;42.550;23.120;2024-02-14T09:25:52;37.50;;;17.63;;
39680;SDS011;26327;42.550;23.120;2024-02-14T09:28:17;32.25;;;15.80;;
39680;SDS011;26327;42.550;23.120;2024-02-14T09:30:43;25.77;;;14.77;;
39680;SDS011;26327;42.550;23.120;2024-02-14T09:33:09;29.17;;;14.30;;
39680;SDS011;26327;42.550;23.120;2024-02-14T09:35:34;37.88;;;17.90;;
39680;SDS011;26327;42.550;23.120;2024-02-14T09:38:02;43.47;;;21.00;;
39680;SDS011;26327;42.550;23.120;2024-02-14T09:40:28;29.45;;;14.65;;
39680;SDS011;26327;42.550;23.120;2024-02-14T09:42:54;29.27;;;13.50;;
39680;SDS011;26327;42.550;23.120;2024-02-14T09:45:22;27.67;;;14.57;;
39680;SDS011;26327;42.550;23.120;2024-02-14T09:47:49;21.23;;;11.52;;
39680;SDS011;26327;42.550;23.120;2024-02-14T09:50:16;24.45;;;13.45;;
39680;SDS011;26327;42.550;23.120;2024-02-14T09:52:42;18.17;;;11.68;;
39680;SDS011;26327;42.550;23.120;2024-02-14T09:55:10;12.70;;;7.95;;
39680;SDS011;26327;42.550;23.120;2024-02-14T09:57:37;14.25;;;9.30;;
39680;SDS011;26327;42.550;23.120;2024-02-14T10:00:06;9.85;;;7.32;;
39680;SDS011;26327;42.550;23.120;2024-02-14T10:02:34;9.82;;;6.93;;
39680;SDS011;26327;42.550;23.120;2024-02-14T10:05:00;12.23;;;7.82;;
39680;SDS011;26327;42.550;23.120;2024-02-14T10:07:26;10.38;;;7.13;;
39680;SDS011;26327;42.550;23.120;2024-02-14T10:09:52;11.18;;;7.30;;
39680;SDS011;26327;42.550;23.120;2024-02-14T10:12:19;17.58;;;10.80;;
39680;SDS011;26327;42.550;23.120;2024-02-14T10:14:44;10.75;;;7.93;;
39680;SDS011;26327;42.550;23.120;2024-02-14T10:17:17;11.23;;;6.78;;
39680;SDS011;26327;42.550;23.120;2024-02-14T10:19:54;12.80;;;8.80;;
39680;SDS011;26327;42.550;23.120;2024-02-14T10:22:24;12.27;;;8.70;;
39680;SDS011;26327;42.550;23.120;2024-02-14T10:24:50;11.80;;;8.35;;
39680;SDS011;26327;42.550;23.120;2024-02-14T10:27:16;12.10;;;7.97;;
39680;SDS011;26327;42.550;23.120;2024-02-14T10:29:41;15.88;;;8.35;;
39680;SDS011;26327;42.550;23.120;2024-02-14T10:32:08;13.25;;;8.52;;
39680;SDS011;26327;42.550;23.120;2024-02-14T10:34:34;10.80;;;7.03;;
39680;SDS011;26327;42.550;23.120;2024-02-14T10:37:02;13.38;;;8.10;;
39680;SDS011;26327;42.550;23.120;2024-02-14T10:39:31;10.70;;;7.00;;
39680;SDS011;26327;42.550;23.120;2024-02-14T10:41:57;21.73;;;9.82;;
39680;SDS011;26327;42.550;23.120;2024-02-14T10:44:23;11.68;;;6.70;;
39680;SDS011;26327;42.550;23.120;2024-02-14T10:46:48;12.77;;;8.65;;
39680;SDS011;26327;42.550;23.120;2024-02-14T10:49:17;9.48;;;6.68;;
39680;SDS011;26327;42.550;23.120;2024-02-14T10:51:45;12.70;;;6.63;;
39680;SDS011;26327;42.550;23.120;2024-02-14T10:54:14;9.20;;;6.68;;
39680;SDS011;26327;42.550;23.120;2024-02-14T10:56:42;11.82;;;7.15;;
39680;SDS011;26327;42.550;23.120;2024-02-14T10:59:10;14.73;;;8.73;;
39680;SDS011;26327;42.550;23.120;2024-02-14T11:01:40;9.75;;;6.50;;
39680;SDS011;26327;42.550;23.120;2024-02-14T11:04:07;12.38;;;6.68;;
39680;SDS011;26327;42.550;23.120;2024-02-14T11:06:43;16.02;;;8.23;;
39680;SDS011;26327;42.550;23.120;2024-02-14T11:09:11;15.60;;;7.68;;
39680;SDS011;26327;42.550;23.120;2024-02-14T11:11:38;12.07;;;6.70;;
39680;SDS011;26327;42.550;23.120;2024-02-14T11:14:04;16.25;;;9.05;;
39680;SDS011;26327;42.550;23.120;2024-02-14T11:16:31;16.90;;;10.48;;
39680;SDS011;26327;42.550;23.120;2024-02-14T11:19:11;11.77;;;7.20;;
39680;SDS011;26327;42.550;23.120;2024-02-14T11:21:41;6.97;;;4.88;;
39680;SDS011;26327;42.550;23.120;2024-02-14T11:24:09;8.98;;;5.43;;
39680;SDS011;26327;42.550;23.120;2024-02-14T11:26:39;9.63;;;5.88;;
39680;SDS011;26327;42.550;23.120;2024-02-14T11:31:32;15.73;;;8.40;;
39680;SDS011;26327;42.550;23.120;2024-02-14T11:34:02;17.55;;;10.15;;
39680;SDS011;26327;42.550;23.120;2024-02-14T11:36:29;11.68;;;6.43;;
39680;SDS011;26327;42.550;23.120;2024-02-14T11:38:55;15.80;;;8.13;;
39680;SDS011;26327;42.550;23.120;2024-02-14T11:41:22;14.82;;;8.10;;
39680;SDS011;26327;42.550;23.120;2024-02-14T11:43:51;14.35;;;7.93;;
39680;SDS011;26327;42.550;23.120;2024-02-14T11:46:16;10.55;;;6.07;;
39680;SDS011;26327;42.550;23.120;2024-02-14T11:48:43;13.73;;;8.00;;
39680;SDS011;26327;42.550;23.120;2024-02-14T11:51:11;11.85;;;6.57;;
39680;SDS011;26327;42.550;23.120;2024-02-14T11:53:36;10.60;;;6.00;;
39680;SDS011;26327;42.550;23.120;2024-02-14T11:56:04;12.43;;;8.52;;
39680;SDS011;26327;42.550;23.120;2024-02-14T11:58:30;13.65;;;6.60;;
39680;SDS011;26327;42.550;23.120;2024-02-14T12:00:56;12.30;;;8.30;;
39680;SDS011;26327;42.550;23.120;2024-02-14T12:03:22;15.77;;;8.75;;
39680;SDS011;26327;42.550;23.120;2024-02-14T12:05:50;14.38;;;9.30;;
39680;SDS011;26327;42.550;23.120;2024-02-14T12:08:17;12.82;;;7.80;;
39680;SDS011;26327;42.550;23.120;2024-02-14T12:10:45;13.85;;;8.82;;
39680;SDS011;26327;42.550;23.120;2024-02-14T12:13:15;12.80;;;8.00;;
39680;SDS011;26327;42.550;23.120;2024-02-14T12:15:46;11.30;;;7.35;;
39680;SDS011;26327;42.550;23.120;2024-02-14T12:18:12;14.02;;;8.25;;
39680;SDS011;26327;42.550;23.120;2024-02-14T12:20:41;13.93;;;7.95;;
39680;SDS011;26327;42.550;23.120;2024-02-14T12:23:14;13.02;;;7.90;;
39680;SDS011;26327;42.550;23.120;2024-02-14T12:25:44;12.70;;;8.38;;
39680;SDS011;26327;42.550;23.120;2024-02-14T12:28:17;10.77;;;7.45;;
39680;SDS011;26327;42.550;23.120;2024-02-14T12:33:22;11.68;;;7.55;;
39680;SDS011;26327;42.550;23.120;2024-02-14T12:35:49;9.65;;;6.00;;
39680;SDS011;26327;42.550;23.120;2024-02-14T12:38:16;8.68;;;5.40;;
39680;SDS011;26327;42.550;23.120;2024-02-14T12:40:42;14.13;;;8.85;;
39680;SDS011;26327;42.550;23.120;2024-02-14T12:43:09;11.18;;;7.80;;
39680;SDS011;26327;42.550;23.120;2024-02-14T12:45:36;12.65;;;7.57;;
39680;SDS011;26327;42.550;23.120;2024-02-14T12:48:07;10.93;;;7.32;;
39680;SDS011;26327;42.550;23.120;2024-02-14T12:50:34;19.00;;;14.00;;
39680;SDS011;26327;42.550;23.120;2024-02-14T12:53:03;29.65;;;18.67;;
39680;SDS011;26327;42.550;23.120;2024-02-14T12:55:29;15.90;;;9.60;;
39680;SDS011;26327;42.550;23.120;2024-02-14T12:57:55;14.85;;;9.23;;
39680;SDS011;26327;42.550;23.120;2024-02-14T13:00:21;9.18;;;5.57;;
39680;SDS011;26327;42.550;23.120;2024-02-14T13:02:50;11.95;;;7.68;;
39680;SDS011;26327;42.550;23.120;2024-02-14T13:05:16;10.65;;;7.63;;
39680;SDS011;26327;42.550;23.120;2024-02-14T13:07:42;11.55;;;7.57;;
39680;SDS011;26327;42.550;23.120;2024-02-14T13:10:08;18.95;;;11.88;;
39680;SDS011;26327;42.550;23.120;2024-02-14T13:12:35;8.77;;;5.65;;
39680;SDS011;26327;42.550;23.120;2024-02-14T13:15:02;8.13;;;5.72;;
39680;SDS011;26327;42.550;23.120;2024-02-14T13:17:27;11.13;;;6.45;;
39680;SDS011;26327;42.550;23.120;2024-02-14T13:19:54;8.65;;;4.72;;
39680;SDS011;26327;42.550;23.120;2024-02-14T13:22:19;7.75;;;5.07;;
39680;SDS011;26327;42.550;23.120;2024-02-14T13:24:45;8.80;;;5.43;;
39680;SDS011;26327;42.550;23.120;2024-02-14T13:27:10;8.25;;;5.97;;
39680;SDS011;26327;42.550;23.120;2024-02-14T13:29:36;11.68;;;6.78;;
39680;SDS011;26327;42.550;23.120;2024-02-14T13:32:01;12.15;;;8.00;;
39680;SDS011;26327;42.550;23.120;2024-02-14T13:34:27;23.33;;;15.95;;
39680;SDS011;26327;42.550;23.120;2024-02-14T13:36:53;20.95;;;14.23;;
39680;SDS011;26327;42.550;23.120;2024-02-14T13:39:19;36.83;;;21.73;;
39680;SDS011;26327;42.550;23.120;2024-02-14T13:41:44;52.35;;;31.85;;
39680;SDS011;26327;42.550;23.120;2024-02-14T13:44:10;51.50;;;29.42;;
39680;SDS011;26327;42.550;23.120;2024-02-14T13:46:35;19.42;;;12.80;;
39680;SDS011;26327;42.550;23.120;2024-02-14T13:49:01;19.33;;;13.45;;
39680;SDS011;26327;42.550;23.120;2024-02-14T13:51:27;12.48;;;7.63;;
39680;SDS011;26327;42.550;23.120;2024-02-14T13:53:52;8.55;;;5.88;;
39680;SDS011;26327;42.550;23.120;2024-02-14T13:56:18;17.92;;;12.27;;
39680;SDS011;26327;42.550;23.120;2024-02-14T13:58:46;17.33;;;10.00;;
39680;SDS011;26327;42.550;23.120;2024-02-14T14:01:14;14.32;;;8.98;;
39680;SDS011;26327;42.550;23.120;2024-02-14T14:03:40;15.90;;;8.40;;
39680;SDS011;26327;42.550;23.120;2024-02-14T14:06:06;13.05;;;7.70;;
39680;SDS011;26327;42.550;23.120;2024-02-14T14:08:33;14.90;;;9.38;;
39680;SDS011;26327;42.550;23.120;2024-02-14T14:11:00;21.23;;;13.85;;
39680;SDS011;26327;42.550;23.120;2024-02-14T14:13:27;22.95;;;13.85;;
39680;SDS011;26327;42.550;23.120;2024-02-14T14:15:55;19.48;;;11.30;;
39680;SDS011;26327;42.550;23.120;2024-02-14T14:18:22;21.75;;;12.93;;